Time;durP1;ratioP1;P1;durP2;ratioP2;P2;SDS_P1;SDS_P2;PMS_P1;PMS_P2;Temp;Humidity;BMP_temperature;BMP_pressure;BME280_temperature;BME280_humidity;BME280_pressure;Samples;Min_cycle;Max_cycle;Signal;HPM_P1;HPM_P2
2022/08/04 00:00:35;;;;;;;2.80;2.13;;;21.50;99.90;;;;;;5008343;28;20646;-82
2022/08/04 00:03:13;;;;;;;2.40;2.30;;;21.50;99.90;;;;;;5007732;28;21036;-82
2022/08/04 00:06:00;;;;;;;2.60;2.40;;;21.40;99.90;;;;;;5012025;28;20620;-82
2022/08/04 00:08:39;;;;;;;2.43;2.23;;;21.40;99.90;;;;;;5008883;28;20637;-82
2022/08/04 00:11:09;;;;;;;2.20;2.07;;;21.30;99.90;;;;;;5011946;28;20658;-82
2022/08/04 00:13:39;;;;;;;2.40;2.20;;;21.30;99.90;;;;;;5013183;28;20628;-82
2022/08/04 00:16:08;;;;;;;2.83;2.40;;;21.20;99.90;;;;;;5011050;28;20627;-83
2022/08/04 00:18:40;;;;;;;3.20;1.90;;;21.20;99.90;;;;;;5012083;28;21171;-83
2022/08/04 00:21:10;;;;;;;2.17;1.80;;;21.20;99.90;;;;;;5018212;28;20662;-83
2022/08/04 00:23:38;;;;;;;4.23;2.63;;;21.20;99.90;;;;;;5011712;28;20694;-82
2022/08/04 00:26:08;;;;;;;2.80;2.20;;;21.10;99.90;;;;;;5010049;28;20639;-82
2022/08/04 00:28:36;;;;;;;2.73;2.47;;;21.10;99.90;;;;;;5002114;28;21163;-83
2022/08/04 00:31:04;;;;;;;2.77;2.27;;;21.10;99.90;;;;;;5017565;28;21053;-83
2022/08/04 00:33:31;;;;;;;2.10;1.90;;;21.10;99.90;;;;;;5011672;28;20623;-83
2022/08/04 00:35:59;;;;;;;3.73;2.27;;;21.10;99.90;;;;;;5008146;28;20623;-82
2022/08/04 00:38:27;;;;;;;2.80;2.40;;;21.00;99.90;;;;;;5010989;28;20632;-83
2022/08/04 00:41:02;;;;;;;3.43;2.53;;;21.00;99.90;;;;;;5011723;28;20689;-83
2022/08/04 00:43:33;;;;;;;2.00;1.80;;;21.00;99.90;;;;;;5007779;28;20669;-82
2022/08/04 00:46:35;;;;;;;2.17;1.97;;;20.90;99.90;;;;;;5014906;28;20630;-82
2022/08/04 00:49:26;;;;;;;2.63;2.20;;;20.90;99.90;;;;;;5006067;28;20636;-82
2022/08/04 00:52:05;;;;;;;2.50;2.30;;;20.90;99.90;;;;;;5002138;28;20968;-82
2022/08/04 00:54:49;;;;;;;2.37;2.17;;;20.80;99.90;;;;;;5016613;28;20717;-82
2022/08/04 00:57:30;;;;;;;4.47;2.30;;;20.80;99.90;;;;;;5013776;28;20638;-82
2022/08/04 01:00:06;;;;;;;2.77;2.40;;;20.80;99.90;;;;;;5006980;28;21261;-82
2022/08/04 01:02:37;;;;;;;3.00;2.63;;;20.70;99.90;;;;;;4999272;28;20650;-82
2022/08/04 01:05:06;;;;;;;3.80;2.50;;;20.70;99.90;;;;;;5012638;28;20639;-82
2022/08/04 01:08:03;;;;;;;1.97;1.87;;;20.70;99.90;;;;;;5013617;28;20631;-83
2022/08/04 01:10:41;;;;;;;2.37;1.60;;;20.60;99.90;;;;;;4989422;28;20663;-82
2022/08/04 01:13:29;;;;;;;2.20;2.00;;;20.60;99.90;;;;;;5017177;28;20649;-82
2022/08/04 01:16:04;;;;;;;2.50;2.03;;;20.60;99.90;;;;;;5012118;28;20702;-83
2022/08/04 01:18:41;;;;;;;2.30;2.10;;;20.60;99.90;;;;;;5009473;28;21134;-82
2022/08/04 01:21:30;;;;;;;2.00;1.90;;;20.50;99.90;;;;;;5003469;28;21111;-82
2022/08/04 01:24:29;;;;;;;2.00;1.90;;;20.50;99.90;;;;;;5011923;28;20673;-82
2022/08/04 01:27:00;;;;;;;2.30;2.10;;;20.50;99.90;;;;;;5003623;28;20679;-82
2022/08/04 01:29:34;;;;;;;2.60;2.40;;;20.40;99.90;;;;;;5013167;28;20623;-82
2022/08/04 01:32:04;;;;;;;4.00;2.13;;;20.40;99.90;;;;;;5006508;28;20717;-82
2022/08/04 01:34:36;;;;;;;5.40;2.43;;;20.30;99.90;;;;;;5013598;28;20626;-82
2022/08/04 01:37:21;;;;;;;5.03;2.00;;;20.40;99.90;;;;;;4998037;28;20637;-82
2022/08/04 01:39:51;;;;;;;2.93;2.30;;;20.40;99.90;;;;;;4999311;28;20666;-82
2022/08/04 01:42:21;;;;;;;2.27;2.07;;;20.30;99.90;;;;;;5005659;28;21019;-82
2022/08/04 01:44:51;;;;;;;2.50;2.30;;;20.20;99.90;;;;;;5010561;28;20646;-82
2022/08/04 01:47:21;;;;;;;1.90;1.80;;;20.20;99.90;;;;;;5009543;28;20678;-82
2022/08/04 01:49:50;;;;;;;2.47;2.27;;;20.20;99.90;;;;;;5012653;28;20658;-82
2022/08/04 01:52:18;;;;;;;3.20;2.20;;;20.10;99.90;;;;;;4996536;28;20632;-82
2022/08/04 01:54:47;;;;;;;4.53;2.50;;;20.10;99.90;;;;;;4997878;28;21133;-83
2022/08/04 01:57:18;;;;;;;4.90;2.00;;;20.10;99.90;;;;;;5017211;28;20651;-82
2022/08/04 01:59:47;;;;;;;2.23;2.00;;;20.10;99.90;;;;;;4998589;28;21220;-83
2022/08/04 02:02:15;;;;;;;3.10;2.07;;;20.00;99.90;;;;;;5005251;28;20826;-82
2022/08/04 02:04:42;;;;;;;2.20;2.10;;;20.00;99.90;;;;;;5015324;28;20715;-82
2022/08/04 02:07:27;;;;;;;2.90;2.07;;;20.00;99.90;;;;;;5012192;28;20637;-82
2022/08/04 02:10:04;;;;;;;3.47;2.20;;;19.90;99.90;;;;;;5000793;28;20647;-82
2022/08/04 02:12:46;;;;;;;2.40;2.27;;;19.90;99.90;;;;;;5015474;28;20984;-82
2022/08/04 02:15:25;;;;;;;2.10;1.80;;;19.90;99.90;;;;;;5009631;28;20637;-82
2022/08/04 02:18:02;;;;;;;3.10;2.77;;;19.80;99.90;;;;;;5009966;28;20611;-82
2022/08/04 02:20:34;;;;;;;3.87;2.17;;;19.80;99.90;;;;;;5005017;28;20667;-82
2022/08/04 02:23:03;;;;;;;3.40;2.03;;;19.80;99.90;;;;;;4998048;28;20704;-82
2022/08/04 02:25:36;;;;;;;2.43;2.20;;;19.80;99.90;;;;;;5007606;28;20622;-82
2022/08/04 02:28:16;;;;;;;2.47;2.10;;;19.80;99.90;;;;;;5016267;28;21005;-82
2022/08/04 02:30:52;;;;;;;2.67;2.37;;;19.80;99.90;;;;;;5018298;28;20999;-82
2022/08/04 02:33:26;;;;;;;2.00;1.90;;;19.70;99.90;;;;;;5018369;28;20845;-82
2022/08/04 02:36:00;;;;;;;2.20;2.10;;;19.70;99.90;;;;;;5007064;28;20988;-82
2022/08/04 02:38:42;;;;;;;1.80;1.70;;;19.60;99.90;;;;;;5011621;28;20631;-82
2022/08/04 02:41:09;;;;;;;2.63;2.43;;;19.60;99.90;;;;;;5013614;28;20741;-82
2022/08/04 02:43:38;;;;;;;4.47;1.93;;;19.60;99.90;;;;;;5015548;28;21013;-82
2022/08/04 02:46:06;;;;;;;3.53;2.17;;;19.60;99.90;;;;;;5022025;28;21198;-83
2022/08/04 02:48:36;;;;;;;3.27;2.40;;;19.50;99.90;;;;;;5007976;28;20644;-82
2022/08/04 02:51:05;;;;;;;2.33;2.13;;;19.50;99.90;;;;;;5002562;28;20655;-82
2022/08/04 02:53:36;;;;;;;2.07;1.80;;;19.50;99.90;;;;;;4999536;28;20629;-82
2022/08/04 02:56:04;;;;;;;1.73;1.63;;;19.40;99.90;;;;;;5001046;28;20636;-82
2022/08/04 02:58:35;;;;;;;2.80;2.43;;;19.40;99.90;;;;;;5004175;28;20731;-82
2022/08/04 03:01:01;;;;;;;4.33;2.30;;;19.40;99.90;;;;;;5005623;28;20662;-82
2022/08/04 03:03:40;;;;;;;2.23;2.10;;;19.40;99.90;;;;;;5002958;28;20667;-82
2022/08/04 03:06:45;;;;;;;2.60;2.40;;;19.40;99.90;;;;;;5014179;28;20625;-81
2022/08/04 03:10:01;;;;;;;2.20;2.00;;;19.40;99.90;;;;;;5010611;28;20643;-81
2022/08/04 03:13:08;;;;;;;2.37;2.20;;;19.40;99.90;;;;;;5017499;28;20627;-82
2022/08/04 03:16:00;;;;;;;2.77;2.27;;;19.40;99.90;;;;;;5012556;28;20630;-81
2022/08/04 03:19:07;;;;;;;2.30;2.20;;;19.40;99.90;;;;;;5008161;28;20722;-81
2022/08/04 03:22:00;;;;;;;2.10;1.90;;;19.30;99.90;;;;;;5003425;28;20662;-80
2022/08/04 03:25:09;;;;;;;3.50;1.90;;;19.30;99.90;;;;;;5011779;28;20686;-83
2022/08/04 03:28:14;;;;;;;1.87;1.77;;;19.30;99.90;;;;;;5005405;28;20640;-83
2022/08/04 03:30:56;;;;;;;3.10;1.87;;;19.20;99.90;;;;;;5007987;28;21220;-82
2022/08/04 03:33:45;;;;;;;2.30;2.10;;;19.20;99.90;;;;;;5015432;28;20624;-83
2022/08/04 03:36:50;;;;;;;2.93;2.17;;;19.20;99.90;;;;;;5009253;28;20607;-83
2022/08/04 03:39:42;;;;;;;3.00;2.67;;;19.20;99.90;;;;;;5011121;28;20633;-81
2022/08/04 03:42:43;;;;;;;3.70;2.40;;;19.20;99.90;;;;;;5016366;28;21296;-82
2022/08/04 03:45:37;;;;;;;2.23;2.03;;;19.10;99.90;;;;;;5000953;28;20640;-82
2022/08/04 03:48:34;;;;;;;2.50;2.30;;;19.10;99.90;;;;;;4974948;28;20632;-81
2022/08/04 03:54:46;;;;;;;2.90;2.70;;;19.10;99.90;;;;;;5009122;28;21203;-81
2022/08/04 03:57:42;;;;;;;2.70;2.30;;;19.00;99.90;;;;;;5000396;28;20634;-81
2022/08/04 04:00:12;;;;;;;3.60;2.10;;;19.10;99.90;;;;;;5013439;28;20647;-81
2022/08/04 04:03:11;;;;;;;3.40;2.13;;;19.00;99.90;;;;;;5006879;28;20654;-84
2022/08/04 04:06:02;;;;;;;4.30;2.37;;;19.00;99.90;;;;;;5013834;28;20635;-83
2022/08/04 04:08:56;;;;;;;3.53;2.30;;;19.00;99.90;;;;;;5011784;28;20651;-83
2022/08/04 04:11:51;;;;;;;2.87;2.67;;;19.00;99.90;;;;;;5011557;28;20651;-83
2022/08/04 04:17:54;;;;;;;4.07;3.20;;;18.90;99.90;;;;;;5100670;27;21093;-82
2022/08/04 04:20:41;;;;;;;2.67;2.47;;;19.00;99.90;;;;;;5095145;28;20627;-83
2022/08/04 04:23:24;;;;;;;3.97;3.00;;;19.00;99.90;;;;;;5109339;28;20992;-82
2022/08/04 04:26:06;;;;;;;3.10;2.90;;;19.00;99.90;;;;;;5116431;28;20646;-82
2022/08/04 04:28:57;;;;;;;5.60;2.67;;;19.00;99.90;;;;;;5108925;28;20627;-83
2022/08/04 04:31:35;;;;;;;2.33;2.23;;;19.00;99.90;;;;;;5109671;28;20607;-82
2022/08/04 04:34:16;;;;;;;2.40;2.20;;;19.00;99.90;;;;;;5111501;27;20637;-83
2022/08/04 04:36:53;;;;;;;2.57;2.47;;;19.00;99.90;;;;;;5112880;28;20730;-82
2022/08/04 04:39:31;;;;;;;4.17;3.10;;;19.00;99.90;;;;;;5115046;27;20623;-83
2022/08/04 04:42:19;;;;;;;4.53;2.67;;;19.00;99.90;;;;;;5104606;28;20633;-83
2022/08/04 04:45:12;;;;;;;3.90;2.60;;;19.00;99.90;;;;;;5106947;28;20623;-82
2022/08/04 04:47:52;;;;;;;4.80;2.87;;;19.10;99.90;;;;;;5108853;28;20635;-82
2022/08/04 04:50:28;;;;;;;3.87;2.10;;;19.10;99.90;;;;;;5113417;28;20995;-82
2022/08/04 04:53:02;;;;;;;2.77;2.57;;;19.20;99.90;;;;;;5103758;28;20721;-82
2022/08/04 04:55:39;;;;;;;2.83;2.40;;;19.20;99.90;;;;;;5112216;28;20685;-82
2022/08/04 04:58:11;;;;;;;2.70;2.50;;;19.30;99.90;;;;;;5115079;28;20630;-84
2022/08/04 05:00:56;;;;;;;2.87;2.57;;;19.30;99.90;;;;;;5115920;28;20933;-82
2022/08/04 05:03:42;;;;;;;2.33;2.13;;;19.30;99.90;;;;;;5110463;28;20646;-82
2022/08/04 05:06:22;;;;;;;3.73;2.60;;;19.40;99.90;;;;;;5108321;27;20655;-82
2022/08/04 05:09:10;;;;;;;4.90;2.60;;;19.50;99.90;;;;;;5113910;28;20622;-82
2022/08/04 05:12:31;;;;;;;6.03;2.73;;;19.50;99.90;;;;;;5107701;28;20607;-82
2022/08/04 05:15:01;;;;;;;3.83;2.70;;;19.50;99.90;;;;;;5103317;28;20638;-82
2022/08/04 05:17:36;;;;;;;4.47;3.00;;;19.70;99.90;;;;;;5108113;27;20631;-81
2022/08/04 05:20:08;;;;;;;3.30;2.70;;;19.70;99.90;;;;;;5115552;28;20990;-82
2022/08/04 05:22:40;;;;;;;3.60;2.30;;;19.80;99.90;;;;;;5096976;28;20649;-81
2022/08/04 05:25:18;;;;;;;2.57;2.30;;;19.70;99.90;;;;;;5105494;28;20650;-82
2022/08/04 05:27:50;;;;;;;4.60;2.70;;;19.80;99.90;;;;;;5096495;27;20629;-82
2022/08/04 05:30:19;;;;;;;5.87;2.70;;;19.80;99.90;;;;;;5099832;28;20665;-81
2022/08/04 05:32:53;;;;;;;5.83;2.80;;;19.90;99.90;;;;;;5094407;28;21202;-81
2022/08/04 05:35:27;;;;;;;4.00;2.70;;;20.00;99.90;;;;;;5100637;28;20639;-82
2022/08/04 05:37:57;;;;;;;7.50;2.60;;;20.00;99.90;;;;;;5087090;28;20619;-81
2022/08/04 05:40:25;;;;;;;3.33;2.63;;;20.10;99.90;;;;;;5094102;28;20627;-81
2022/08/04 05:42:54;;;;;;;3.20;2.43;;;20.20;99.90;;;;;;5086613;28;21218;-81
2022/08/04 05:45:22;;;;;;;3.43;2.70;;;20.30;99.90;;;;;;5102666;28;20646;-81
2022/08/04 05:47:51;;;;;;;4.93;2.90;;;20.40;99.90;;;;;;5101444;28;20691;-82
2022/08/04 05:50:19;;;;;;;3.00;2.70;;;20.50;99.90;;;;;;5100716;28;20741;-82
2022/08/04 05:52:48;;;;;;;8.00;2.90;;;20.60;99.90;;;;;;5099551;28;20932;-82
2022/08/04 05:55:17;;;;;;;3.00;2.70;;;20.70;99.90;;;;;;5084689;28;20675;-82
2022/08/04 05:57:47;;;;;;;3.47;2.37;;;20.90;99.90;;;;;;5092170;28;20668;-82
2022/08/04 06:00:16;;;;;;;4.40;2.40;;;20.90;99.90;;;;;;5101110;28;20639;-82
2022/08/04 06:02:46;;;;;;;4.27;3.87;;;21.10;99.90;;;;;;5096763;28;20700;-82
2022/08/04 06:05:14;;;;;;;3.47;2.70;;;21.10;99.90;;;;;;5098070;28;20665;-82
2022/08/04 06:07:41;;;;;;;2.90;2.70;;;21.20;99.90;;;;;;5091587;28;21234;-82
2022/08/04 06:10:09;;;;;;;2.90;2.40;;;21.20;99.90;;;;;;5099921;28;20638;-82
2022/08/04 06:12:42;;;;;;;3.57;2.70;;;21.20;99.90;;;;;;5099662;28;20616;-82
2022/08/04 06:15:12;;;;;;;3.07;2.50;;;21.30;99.90;;;;;;5097356;28;20669;-82
2022/08/04 06:17:43;;;;;;;3.27;2.13;;;21.30;99.90;;;;;;5097162;28;20648;-82
2022/08/04 06:20:12;;;;;;;3.83;3.20;;;21.40;99.90;;;;;;5101996;28;20619;-83
2022/08/04 06:22:42;;;;;;;2.40;2.30;;;21.50;99.90;;;;;;5096258;28;20608;-82
2022/08/04 06:25:13;;;;;;;2.97;2.40;;;21.60;99.90;;;;;;5093741;28;20654;-82
2022/08/04 06:27:42;;;;;;;3.40;2.67;;;21.70;99.90;;;;;;5095400;28;20711;-82
2022/08/04 06:30:13;;;;;;;6.43;2.77;;;21.80;99.90;;;;;;5097474;28;20632;-82
2022/08/04 06:32:54;;;;;;;3.73;3.43;;;21.90;99.90;;;;;;5091482;28;20899;-82
2022/08/04 06:35:22;;;;;;;3.13;2.30;;;21.90;99.90;;;;;;5086290;28;20780;-82
2022/08/04 06:37:49;;;;;;;5.73;3.10;;;22.10;99.90;;;;;;5099107;28;20662;-82
2022/08/04 06:40:19;;;;;;;2.50;2.30;;;22.20;99.90;;;;;;5092763;28;20624;-82
2022/08/04 06:42:48;;;;;;;2.70;2.50;;;22.30;99.90;;;;;;5099079;28;21246;-82
2022/08/04 06:45:16;;;;;;;4.30;3.27;;;22.50;99.90;;;;;;5091908;28;20712;-82
2022/08/04 06:47:44;;;;;;;3.63;2.90;;;22.60;99.90;;;;;;5090172;28;20690;-82
2022/08/04 06:50:12;;;;;;;3.87;3.03;;;22.80;99.90;;;;;;5097074;28;21162;-82
2022/08/04 06:52:39;;;;;;;4.43;2.70;;;22.90;99.90;;;;;;5093887;28;21191;-82
2022/08/04 06:55:07;;;;;;;8.00;2.90;;;23.00;99.90;;;;;;5088212;28;20656;-82
2022/08/04 06:57:36;;;;;;;7.07;2.80;;;23.10;99.90;;;;;;5092926;28;20679;-82
2022/08/04 07:00:08;;;;;;;3.83;2.77;;;23.30;99.90;;;;;;5082245;28;20624;-81
2022/08/04 07:02:43;;;;;;;2.97;2.73;;;23.40;99.90;;;;;;5090257;28;20648;-82
2022/08/04 07:05:12;;;;;;;2.50;2.30;;;23.50;99.90;;;;;;5094169;28;20665;-81
2022/08/04 07:07:40;;;;;;;3.47;2.50;;;23.60;99.90;;;;;;5092126;28;20612;-82
2022/08/04 07:10:09;;;;;;;3.30;3.00;;;23.70;99.90;;;;;;5096156;28;20623;-81
2022/08/04 07:12:37;;;;;;;3.00;2.70;;;23.80;99.90;;;;;;5094135;28;20647;-82
2022/08/04 07:15:07;;;;;;;6.17;2.53;;;24.00;99.90;;;;;;5087235;28;20779;-82
2022/08/04 07:17:35;;;;;;;4.93;2.77;;;24.10;99.90;;;;;;5079863;28;20966;-82
2022/08/04 07:20:03;;;;;;;3.30;2.83;;;24.20;99.90;;;;;;5088531;28;20683;-82
2022/08/04 07:22:30;;;;;;;3.43;2.57;;;24.30;99.90;;;;;;5087913;28;21169;-82
2022/08/04 07:24:58;;;;;;;2.70;2.50;;;24.40;99.90;;;;;;5088334;28;20620;-82
2022/08/04 07:27:26;;;;;;;3.63;3.10;;;24.50;99.90;;;;;;5086787;28;20619;-82
2022/08/04 07:29:53;;;;;;;4.10;2.90;;;24.60;99.90;;;;;;5080507;28;21003;-82
2022/08/04 07:32:22;;;;;;;2.80;2.60;;;24.70;99.90;;;;;;5086541;28;20953;-82
2022/08/04 07:34:51;;;;;;;2.67;2.43;;;24.90;99.90;;;;;;5081940;28;20620;-82
2022/08/04 07:37:18;;;;;;;2.60;2.40;;;25.00;99.90;;;;;;5083533;28;20660;-82
2022/08/04 07:39:45;;;;;;;2.97;2.60;;;25.10;99.90;;;;;;5094500;28;20624;-82
2022/08/04 07:42:12;;;;;;;3.80;2.53;;;25.10;99.90;;;;;;5096308;28;20633;-82
2022/08/04 07:44:39;;;;;;;4.47;2.40;;;25.20;99.90;;;;;;5087065;28;20620;-82
2022/08/04 07:47:07;;;;;;;5.50;2.53;;;25.30;99.90;;;;;;5093376;28;20655;-82
2022/08/04 07:49:38;;;;;;;5.60;2.97;;;25.40;99.90;;;;;;5081940;28;20636;-81
2022/08/04 07:52:07;;;;;;;2.77;2.53;;;25.60;99.90;;;;;;5088410;28;20654;-82
2022/08/04 07:54:35;;;;;;;2.40;2.20;;;25.70;99.90;;;;;;5081930;28;21253;-82
2022/08/04 07:57:02;;;;;;;2.80;2.10;;;25.80;99.90;;;;;;5090734;28;20733;-82
2022/08/04 07:59:30;;;;;;;3.30;2.50;;;25.90;99.70;;;;;;5091612;28;21000;-82
2022/08/04 08:02:00;;;;;;;2.60;2.40;;;25.90;99.30;;;;;;5093452;28;20615;-82
2022/08/04 08:04:28;;;;;;;3.10;2.53;;;26.10;99.10;;;;;;5086100;28;20619;-82
2022/08/04 08:06:57;;;;;;;3.30;2.30;;;26.20;98.90;;;;;;5082756;28;20665;-82
2022/08/04 08:09:24;;;;;;;5.33;2.53;;;26.30;97.70;;;;;;5087297;28;20612;-82
2022/08/04 08:11:53;;;;;;;3.27;2.20;;;26.30;97.30;;;;;;5091672;28;20646;-82
2022/08/04 08:14:20;;;;;;;3.53;2.53;;;26.40;97.50;;;;;;5086531;28;20628;-82
2022/08/04 08:16:48;;;;;;;3.10;2.30;;;26.50;97.20;;;;;;5085423;28;21232;-82
2022/08/04 08:19:15;;;;;;;3.07;1.90;;;26.60;96.90;;;;;;5079169;28;20629;-82
2022/08/04 08:21:46;;;;;;;2.90;2.60;;;26.70;96.40;;;;;;5090216;28;20617;-82
2022/08/04 08:24:15;;;;;;;2.73;2.20;;;26.80;95.60;;;;;;5089371;28;20635;-83
2022/08/04 08:26:42;;;;;;;2.67;2.53;;;26.90;95.60;;;;;;5092140;28;20649;-82
2022/08/04 08:29:10;;;;;;;2.97;2.27;;;27.00;94.80;;;;;;5088760;28;20715;-82
2022/08/04 08:31:37;;;;;;;3.47;1.93;;;27.10;94.00;;;;;;5087470;28;20995;-82
2022/08/04 08:34:04;;;;;;;3.07;2.07;;;27.30;92.90;;;;;;5094175;28;20637;-82
2022/08/04 08:36:37;;;;;;;2.60;2.00;;;27.40;92.60;;;;;;5088583;28;21016;-82
2022/08/04 08:39:10;;;;;;;3.30;2.40;;;27.50;92.40;;;;;;5097629;28;20638;-82
2022/08/04 08:42:12;;;;;;;4.03;2.33;;;27.60;92.10;;;;;;5086912;28;20740;-82
2022/08/04 08:45:11;;;;;;;3.30;2.73;;;27.70;91.50;;;;;;5086821;28;21401;-82
2022/08/04 08:48:03;;;;;;;2.30;2.00;;;27.90;91.30;;;;;;5094109;28;20620;-82
2022/08/04 08:50:55;;;;;;;2.67;2.13;;;28.00;90.50;;;;;;5093786;28;20627;-82
2022/08/04 08:53:48;;;;;;;1.80;1.70;;;28.20;90.20;;;;;;5088445;28;21168;-82
2022/08/04 08:56:26;;;;;;;2.57;2.37;;;28.30;87.10;;;;;;5088298;28;20656;-82
2022/08/04 08:59:27;;;;;;;3.97;1.93;;;28.40;87.40;;;;;;5098757;28;20627;-82
2022/08/04 09:02:16;;;;;;;2.70;2.50;;;28.50;86.50;;;;;;5085324;28;20633;-82
2022/08/04 09:05:08;;;;;;;5.30;1.97;;;28.70;85.90;;;;;;5100191;28;20621;-82
2022/08/04 09:08:05;;;;;;;2.90;2.30;;;28.80;84.30;;;;;;5093027;28;20902;-82
2022/08/04 09:10:40;;;;;;;1.77;1.67;;;28.90;82.90;;;;;;5097051;28;20620;-82
2022/08/04 09:13:20;;;;;;;2.13;2.00;;;29.00;82.00;;;;;;5098760;28;20637;-82
2022/08/04 09:15:54;;;;;;;2.33;1.93;;;29.10;82.60;;;;;;5080375;28;20774;-82
2022/08/04 09:18:26;;;;;;;5.10;2.30;;;29.20;80.90;;;;;;5083603;28;20994;-82
2022/08/04 09:21:00;;;;;;;2.30;2.10;;;29.40;80.00;;;;;;5086774;28;20630;-82
2022/08/04 09:23:34;;;;;;;2.33;2.17;;;29.60;79.50;;;;;;5085360;28;20631;-82
2022/08/04 09:26:05;;;;;;;2.47;2.33;;;29.60;78.20;;;;;;5095590;28;20670;-82
2022/08/04 09:28:46;;;;;;;2.93;2.23;;;29.80;79.40;;;;;;5095797;28;20611;-82
2022/08/04 09:31:16;;;;;;;7.30;2.33;;;29.90;78.60;;;;;;5100322;28;21362;-82
2022/08/04 09:33:57;;;;;;;3.30;2.37;;;30.00;78.30;;;;;;5097994;28;20744;-82
2022/08/04 09:36:32;;;;;;;2.90;2.60;;;30.10;78.90;;;;;;5084064;28;20656;-82
2022/08/04 09:39:09;;;;;;;3.53;2.20;;;30.10;78.30;;;;;;5088198;28;20642;-82
2022/08/04 09:41:45;;;;;;;2.70;2.50;;;30.20;78.60;;;;;;5084041;28;20615;-82
2022/08/04 09:44:21;;;;;;;2.50;2.40;;;30.30;78.80;;;;;;5082798;28;20715;-82
2022/08/04 09:46:55;;;;;;;2.67;2.47;;;30.40;78.40;;;;;;5094751;28;20651;-82
2022/08/04 09:49:33;;;;;;;3.40;2.90;;;30.40;77.40;;;;;;5083470;28;20705;-82
2022/08/04 09:52:09;;;;;;;2.70;2.40;;;30.60;77.40;;;;;;5086901;28;20631;-82
2022/08/04 09:54:49;;;;;;;2.87;2.43;;;30.70;77.10;;;;;;5082840;28;20608;-82
2022/08/04 09:57:28;;;;;;;3.10;2.43;;;30.80;76.40;;;;;;5094471;28;20764;-82
2022/08/04 10:00:04;;;;;;;2.50;2.30;;;30.90;75.70;;;;;;5084383;28;20634;-82
2022/08/04 10:02:35;;;;;;;2.67;2.47;;;31.00;74.80;;;;;;5085735;28;20723;-82
2022/08/04 10:05:08;;;;;;;2.70;2.50;;;31.20;75.10;;;;;;5097825;28;21161;-82
2022/08/04 10:07:48;;;;;;;2.27;1.90;;;31.20;74.50;;;;;;5091043;28;20627;-83
2022/08/04 10:10:28;;;;;;;3.30;2.23;;;31.40;73.80;;;;;;5090569;28;20630;-82
2022/08/04 10:13:15;;;;;;;2.30;2.20;;;31.40;72.60;;;;;;5081846;28;20638;-83
2022/08/04 10:15:52;;;;;;;3.53;2.40;;;31.50;70.60;;;;;;5082831;28;20667;-83
2022/08/04 10:18:45;;;;;;;2.63;2.43;;;31.60;69.70;;;;;;5084615;28;20652;-83
2022/08/04 10:21:23;;;;;;;2.70;2.50;;;31.70;69.60;;;;;;5095573;28;20626;-83
2022/08/04 10:24:07;;;;;;;3.03;2.83;;;31.70;69.20;;;;;;5085149;28;20647;-83
2022/08/04 10:26:42;;;;;;;2.90;2.70;;;31.80;68.20;;;;;;5087986;28;20650;-83
2022/08/04 10:29:14;;;;;;;2.77;2.57;;;32.00;69.10;;;;;;5099382;28;20689;-83
2022/08/04 10:31:48;;;;;;;2.87;2.63;;;32.10;67.20;;;;;;5088191;28;20616;-83
2022/08/04 10:34:21;;;;;;;3.73;2.70;;;32.30;68.70;;;;;;5096179;28;20832;-82
2022/08/04 10:36:57;;;;;;;2.97;2.77;;;32.60;68.70;;;;;;5085061;28;20655;-83
2022/08/04 10:39:32;;;;;;;2.37;2.17;;;32.80;68.00;;;;;;5096320;28;20634;-83
2022/08/04 10:42:09;;;;;;;4.90;2.50;;;33.10;66.00;;;;;;5083507;28;20638;-83
2022/08/04 10:44:52;;;;;;;2.83;2.60;;;33.30;66.00;;;;;;5083525;28;20619;-82
2022/08/04 10:47:22;;;;;;;3.23;2.77;;;33.60;65.90;;;;;;5087909;28;21240;-83
2022/08/04 10:49:55;;;;;;;2.60;2.40;;;33.80;63.40;;;;;;5094478;28;20630;-82
2022/08/04 10:52:32;;;;;;;4.67;4.37;;;34.10;61.00;;;;;;5090291;28;20656;-83
2022/08/04 10:55:06;;;;;;;3.90;2.40;;;34.30;60.30;;;;;;5086456;28;20610;-83
2022/08/04 10:57:39;;;;;;;2.30;2.20;;;34.50;58.50;;;;;;5083623;28;21067;-83
2022/08/04 11:00:10;;;;;;;3.80;2.40;;;34.70;58.00;;;;;;5092953;28;21138;-83
2022/08/04 11:02:42;;;;;;;5.90;5.60;;;35.00;57.90;;;;;;5092469;28;20631;-83
2022/08/04 11:05:25;;;;;;;7.17;3.60;;;35.20;55.20;;;;;;5083331;28;20655;-83
2022/08/04 11:08:00;;;;;;;6.03;4.87;;;35.50;55.70;;;;;;5062909;28;20756;-83
2022/08/04 11:10:31;;;;;;;6.27;5.87;;;35.60;54.50;;;;;;5089116;28;20626;-82
2022/08/04 11:13:02;;;;;;;4.83;2.33;;;35.80;52.90;;;;;;5088316;28;20638;-82
2022/08/04 11:15:35;;;;;;;3.20;2.00;;;36.00;52.10;;;;;;5083117;28;20694;-82
2022/08/04 11:18:07;;;;;;;4.60;4.23;;;36.40;50.80;;;;;;5089106;28;20981;-82
2022/08/04 11:20:41;;;;;;;2.47;2.30;;;36.50;51.20;;;;;;5089073;28;20630;-82
2022/08/04 11:23:11;;;;;;;2.90;2.70;;;36.70;48.80;;;;;;5091458;28;20654;-82
2022/08/04 11:25:51;;;;;;;2.00;1.90;;;36.80;48.40;;;;;;5093116;28;20665;-82
2022/08/04 11:28:28;;;;;;;5.83;2.40;;;37.00;47.10;;;;;;5091939;28;20996;-82
2022/08/04 11:31:02;;;;;;;1.83;1.57;;;37.40;46.40;;;;;;5082142;28;20747;-82
2022/08/04 11:33:44;;;;;;;2.10;1.77;;;37.60;44.20;;;;;;5094388;28;20208;-82
2022/08/04 11:36:20;;;;;;;1.90;1.80;;;37.70;44.00;;;;;;5088295;28;20698;-82
2022/08/04 11:38:55;;;;;;;2.00;1.88;;;38.00;46.50;;;;;;5095135;28;20560;-82
2022/08/04 11:41:32;;;;;;;4.25;1.98;;;38.30;44.70;;;;;;5088278;28;20305;-82
2022/08/04 11:44:00;;;;;;;2.30;2.10;;;38.60;44.40;;;;;;5084092;28;20564;-82
2022/08/04 11:46:32;;;;;;;3.10;2.90;;;38.90;43.30;;;;;;5081043;28;20300;-82
2022/08/04 11:49:04;;;;;;;2.38;2.17;;;38.80;42.80;;;;;;5077874;28;20597;-82
2022/08/04 11:51:33;;;;;;;2.47;2.28;;;38.90;42.60;;;;;;5076915;28;20641;-82
2022/08/04 11:54:01;;;;;;;2.38;2.28;;;39.20;42.00;;;;;;5093088;28;20190;-82
2022/08/04 11:56:29;;;;;;;1.95;1.85;;;39.30;41.50;;;;;;5092996;28;20229;-82
2022/08/04 11:58:59;;;;;;;2.25;1.85;;;39.10;40.30;;;;;;5083660;28;20226;-82
2022/08/04 12:01:38;;;;;;;4.03;2.28;;;39.20;41.20;;;;;;5071388;28;20268;-82
2022/08/04 12:04:13;;;;;;;3.08;1.75;;;39.70;41.40;;;;;;5084385;28;20217;-82
2022/08/04 12:06:49;;;;;;;2.95;2.20;;;40.10;39.50;;;;;;5091568;28;20228;-82
2022/08/04 12:09:28;;;;;;;2.35;2.17;;;40.10;39.00;;;;;;5093785;28;20259;-82
2022/08/04 12:12:06;;;;;;;1.98;1.88;;;40.30;39.00;;;;;;5092764;28;20762;-82
2022/08/04 12:14:46;;;;;;;2.03;1.92;;;40.40;38.60;;;;;;5081972;28;20674;-83
2022/08/04 12:17:25;;;;;;;4.50;2.35;;;40.80;38.80;;;;;;5087617;28;20212;-83
2022/08/04 12:19:57;;;;;;;2.40;1.80;;;41.30;38.70;;;;;;5094306;28;20291;-83
2022/08/04 12:22:27;;;;;;;1.77;1.67;;;41.20;37.00;;;;;;5092603;28;20699;-82
2022/08/04 12:25:02;;;;;;;1.77;1.67;;;40.90;36.80;;;;;;5089489;28;20193;-82
2022/08/04 12:27:34;;;;;;;2.53;2.20;;;41.30;36.90;;;;;;5083820;28;20192;-82
2022/08/04 12:30:02;;;;;;;2.63;2.08;;;41.30;35.30;;;;;;5079083;28;20737;-82
2022/08/04 12:32:38;;;;;;;2.30;1.90;;;41.50;35.20;;;;;;5085540;28;20612;-82
2022/08/04 12:35:13;;;;;;;2.08;1.65;;;42.00;36.00;;;;;;5063122;28;20344;-82
2022/08/04 12:37:48;;;;;;;2.40;2.20;;;42.50;34.60;;;;;;5089004;28;20221;-82
2022/08/04 12:40:23;;;;;;;1.77;1.67;;;42.60;34.00;;;;;;5089429;28;20197;-82
2022/08/04 12:42:57;;;;;;;3.80;2.10;;;43.00;34.10;;;;;;5091151;28;20673;-82
2022/08/04 12:45:24;;;;;;;2.17;2.08;;;43.00;33.00;;;;;;5088495;28;20221;-82
2022/08/04 12:47:56;;;;;;;1.77;1.67;;;42.90;33.00;;;;;;5086927;28;20201;-82
2022/08/04 12:50:24;;;;;;;1.95;1.85;;;43.30;32.60;;;;;;5090619;28;20697;-82
2022/08/04 12:52:55;;;;;;;2.35;1.75;;;43.60;33.00;;;;;;5090942;28;20216;-82
2022/08/04 12:55:27;;;;;;;1.95;1.70;;;43.80;31.90;;;;;;5083859;28;20231;-82
2022/08/04 12:57:55;;;;;;;3.90;2.13;;;43.80;31.10;;;;;;5089531;28;20223;-83
2022/08/04 13:00:28;;;;;;;1.85;1.50;;;43.90;31.50;;;;;;5097686;28;20292;-83
2022/08/04 13:03:00;;;;;;;4.75;1.77;;;44.30;32.80;;;;;;5091908;28;20553;-82
2022/08/04 13:05:30;;;;;;;2.50;1.92;;;44.70;30.50;;;;;;5084602;28;20222;-81
2022/08/04 13:08:00;;;;;;;2.85;1.92;;;44.50;30.40;;;;;;5085041;28;20228;-82
2022/08/04 13:10:30;;;;;;;3.83;1.90;;;44.80;30.20;;;;;;5086673;28;20216;-82
2022/08/04 13:13:01;;;;;;;2.20;2.10;;;44.60;29.60;;;;;;5088670;28;20671;-82
2022/08/04 13:15:29;;;;;;;2.28;2.03;;;44.00;29.90;;;;;;5085042;28;20260;-82
2022/08/04 13:17:59;;;;;;;2.25;2.15;;;43.50;29.90;;;;;;5087685;28;20643;-82
2022/08/04 13:20:29;;;;;;;2.25;2.03;;;43.80;30.10;;;;;;5092394;28;20608;-82
2022/08/04 13:23:07;;;;;;;3.08;2.20;;;43.90;29.60;;;;;;5088330;28;20226;-82
2022/08/04 13:25:39;;;;;;;2.15;1.98;;;44.30;29.80;;;;;;5082683;28;20564;-82
2022/08/04 13:28:11;;;;;;;2.40;2.20;;;44.70;29.80;;;;;;5095204;28;20649;-82
2022/08/04 13:30:39;;;;;;;3.78;1.88;;;44.60;29.10;;;;;;5091019;28;20189;-82
2022/08/04 13:33:07;;;;;;;2.33;2.17;;;44.30;29.30;;;;;;5091914;28;20216;-82
2022/08/04 13:35:37;;;;;;;2.35;1.70;;;44.60;29.30;;;;;;5084184;28;20216;-83
2022/08/04 13:38:08;;;;;;;3.45;2.00;;;45.20;30.00;;;;;;5089362;28;20201;-82